Time;durP1;ratioP1;P1;durP2;ratioP2;P2;SDS_P1;SDS_P2;PMS_P1;PMS_P2;Temp;Humidity;BMP_temperature;BMP_pressure;BME280_temperature;BME280_humidity;BME280_pressure;Samples;Min_cycle;Max_cycle;Signal;HPM_P1;HPM_P2
2023/03/27 00:01:23;;;;;;;4.37;1.73;;;;;;;;;;4971721;28;20458;-55
2023/03/27 00:03:49;;;;;;;5.83;2.00;;;;;;;;;;4971327;28;20549;-55
2023/03/27 00:06:18;;;;;;;5.40;2.03;;;;;;;;;;4968645;28;20451;-56
2023/03/27 00:08:45;;;;;;;4.67;1.70;;;;;;;;;;4975500;28;20438;-55
2023/03/27 00:11:11;;;;;;;8.20;2.10;;;;;;;;;;4975351;28;20469;-55
2023/03/27 00:13:37;;;;;;;6.17;2.40;;;;;;;;;;4975239;28;20945;-55
2023/03/27 00:16:04;;;;;;;8.13;1.90;;;;;;;;;;4975204;28;20474;-55
2023/03/27 00:18:32;;;;;;;7.97;2.50;;;;;;;;;;4975126;28;20443;-55
2023/03/27 00:20:59;;;;;;;4.20;1.80;;;;;;;;;;4975617;28;20856;-55
2023/03/27 00:23:28;;;;;;;4.10;1.90;;;;;;;;;;4975148;28;20473;-54
2023/03/27 00:25:54;;;;;;;7.10;2.00;;;;;;;;;;4975171;28;20497;-54
2023/03/27 00:28:21;;;;;;;6.87;2.00;;;;;;;;;;4974944;28;20444;-55
2023/03/27 00:30:47;;;;;;;6.47;2.27;;;;;;;;;;4975029;28;20521;-54
2023/03/27 00:33:14;;;;;;;4.87;2.07;;;;;;;;;;4974855;28;20540;-55
2023/03/27 00:35:44;;;;;;;5.17;1.87;;;;;;;;;;4974667;28;20515;-55
2023/03/27 00:38:10;;;;;;;4.73;1.90;;;;;;;;;;4974888;28;20518;-55
2023/03/27 00:40:38;;;;;;;4.47;1.70;;;;;;;;;;4974717;28;20509;-54
2023/03/27 00:43:17;;;;;;;5.90;1.87;;;;;;;;;;4974815;28;20222;-54
2023/03/27 00:45:44;;;;;;;3.20;1.53;;;;;;;;;;4974850;28;20533;-54
2023/03/27 00:48:10;;;;;;;7.10;1.97;;;;;;;;;;4974729;28;20816;-54
2023/03/27 00:50:37;;;;;;;3.47;1.70;;;;;;;;;;4974474;28;20451;-54
2023/03/27 00:53:05;;;;;;;5.07;2.03;;;;;;;;;;4974581;28;20265;-54
2023/03/27 00:55:33;;;;;;;7.33;2.50;;;;;;;;;;4974391;28;20562;-54
2023/03/27 00:58:03;;;;;;;2.93;1.77;;;;;;;;;;4974697;28;20813;-55
2023/03/27 01:00:30;;;;;;;5.60;1.77;;;;;;;;;;4974489;28;20466;-55
2023/03/27 01:02:57;;;;;;;5.30;1.80;;;;;;;;;;4974275;28;20469;-54
2023/03/27 01:05:23;;;;;;;7.40;2.40;;;;;;;;;;4974002;28;20489;-55
2023/03/27 01:07:50;;;;;;;6.10;1.80;;;;;;;;;;4974422;28;20434;-55
2023/03/27 01:10:16;;;;;;;6.50;1.93;;;;;;;;;;4974154;28;20446;-55
2023/03/27 01:12:49;;;;;;;3.77;1.80;;;;;;;;;;4974266;28;20450;-55
2023/03/27 01:15:24;;;;;;;4.00;1.87;;;;;;;;;;4974281;28;20474;-54
2023/03/27 01:17:55;;;;;;;4.13;1.70;;;;;;;;;;4973337;28;20508;-55
2023/03/27 01:20:31;;;;;;;7.97;2.10;;;;;;;;;;4973938;28;20524;-55
2023/03/27 01:23:05;;;;;;;4.73;1.80;;;;;;;;;;4974370;28;20438;-55
2023/03/27 01:25:41;;;;;;;5.43;2.00;;;;;;;;;;4974041;28;20440;-55
2023/03/27 01:28:16;;;;;;;3.73;1.70;;;;;;;;;;4973969;28;20829;-55
2023/03/27 01:30:47;;;;;;;4.47;2.07;;;;;;;;;;4974000;28;20624;-55
2023/03/27 01:33:25;;;;;;;1.97;1.50;;;;;;;;;;4973835;28;20478;-55
2023/03/27 01:36:03;;;;;;;5.77;1.67;;;;;;;;;;4973748;28;20536;-55
2023/03/27 01:38:47;;;;;;;3.93;1.97;;;;;;;;;;4973983;28;20449;-54
2023/03/27 01:41:18;;;;;;;3.47;1.80;;;;;;;;;;4967043;28;20454;-55
2023/03/27 01:43:49;;;;;;;6.60;2.20;;;;;;;;;;4973941;28;20508;-55
2023/03/27 01:46:19;;;;;;;7.90;1.73;;;;;;;;;;4973712;28;20969;-54
2023/03/27 01:48:47;;;;;;;4.80;2.17;;;;;;;;;;4973789;28;20445;-54
2023/03/27 01:51:15;;;;;;;5.53;2.40;;;;;;;;;;4973732;28;20430;-54
2023/03/27 01:53:45;;;;;;;4.30;2.00;;;;;;;;;;4973995;28;20651;-54
2023/03/27 01:56:17;;;;;;;3.57;1.73;;;;;;;;;;4973534;28;20474;-55
2023/03/27 01:58:45;;;;;;;5.93;1.97;;;;;;;;;;4973536;28;20470;-54
2023/03/27 02:01:13;;;;;;;4.20;1.90;;;;;;;;;;4973270;28;20485;-54
2023/03/27 02:03:40;;;;;;;4.57;2.33;;;;;;;;;;4973317;28;20850;-55
2023/03/27 02:06:08;;;;;;;3.37;1.70;;;;;;;;;;4973249;28;20442;-54
2023/03/27 02:08:36;;;;;;;6.73;2.37;;;;;;;;;;4973108;28;20540;-54
2023/03/27 02:11:03;;;;;;;5.03;1.73;;;;;;;;;;4973189;28;20435;-54
2023/03/27 02:13:33;;;;;;;5.13;2.00;;;;;;;;;;4973262;28;20444;-54
2023/03/27 02:16:01;;;;;;;6.43;1.90;;;;;;;;;;4973115;28;21013;-54
2023/03/27 02:18:30;;;;;;;9.30;2.53;;;;;;;;;;4973330;28;20956;-54
2023/03/27 02:20:56;;;;;;;5.50;2.10;;;;;;;;;;4973225;28;20442;-54
2023/03/27 02:23:22;;;;;;;5.37;1.90;;;;;;;;;;4972909;28;20430;-54
2023/03/27 02:25:49;;;;;;;7.60;2.10;;;;;;;;;;4973081;28;20439;-54
2023/03/27 02:28:28;;;;;;;6.80;2.23;;;;;;;;;;4972945;28;20446;-55
2023/03/27 02:30:58;;;;;;;8.40;2.20;;;;;;;;;;4972540;28;20493;-54
2023/03/27 02:33:33;;;;;;;4.53;2.10;;;;;;;;;;4972533;28;20565;-54
2023/03/27 02:36:05;;;;;;;8.73;2.23;;;;;;;;;;4973102;28;20506;-55
2023/03/27 02:38:33;;;;;;;7.47;2.30;;;;;;;;;;4972850;28;20442;-55
2023/03/27 02:41:05;;;;;;;6.00;2.77;;;;;;;;;;4973174;28;20458;-55
2023/03/27 02:43:34;;;;;;;6.30;2.37;;;;;;;;;;4972784;28;20438;-55
2023/03/27 02:46:04;;;;;;;4.53;2.07;;;;;;;;;;4972822;28;20444;-55
2023/03/27 02:48:35;;;;;;;8.50;2.10;;;;;;;;;;4972739;28;20431;-55
2023/03/27 02:51:03;;;;;;;5.83;1.90;;;;;;;;;;4972800;28;20442;-55
2023/03/27 02:53:32;;;;;;;7.60;2.20;;;;;;;;;;4972775;28;21014;-55
2023/03/27 02:55:59;;;;;;;8.77;3.20;;;;;;;;;;4972697;28;21048;-55
2023/03/27 02:58:29;;;;;;;9.33;4.00;;;;;;;;;;4972604;28;20426;-54
2023/03/27 03:00:56;;;;;;;4.30;2.10;;;;;;;;;;4972635;28;20445;-54
2023/03/27 03:03:26;;;;;;;6.00;2.00;;;;;;;;;;4972522;28;20471;-54
2023/03/27 03:05:54;;;;;;;10.93;2.40;;;;;;;;;;4972646;28;20469;-54
2023/03/27 03:08:20;;;;;;;4.10;2.13;;;;;;;;;;4972454;28;20462;-55
2023/03/27 03:10:46;;;;;;;7.40;2.43;;;;;;;;;;4972477;28;20441;-55
2023/03/27 03:13:12;;;;;;;5.90;2.07;;;;;;;;;;4972665;28;20517;-55
2023/03/27 03:15:39;;;;;;;8.10;2.33;;;;;;;;;;4972260;28;20597;-54
2023/03/27 03:18:06;;;;;;;6.70;2.07;;;;;;;;;;4972455;28;20199;-54
2023/03/27 03:20:33;;;;;;;6.57;2.37;;;;;;;;;;4972347;28;20475;-54
2023/03/27 03:23:01;;;;;;;8.07;2.33;;;;;;;;;;4972658;28;20469;-54
2023/03/27 03:25:29;;;;;;;7.93;2.30;;;;;;;;;;4972714;28;20831;-54
2023/03/27 03:27:56;;;;;;;4.27;1.90;;;;;;;;;;4972436;28;20851;-56
2023/03/27 03:30:23;;;;;;;6.60;2.00;;;;;;;;;;4972301;28;20438;-54
2023/03/27 03:32:48;;;;;;;5.17;2.00;;;;;;;;;;4972049;28;20831;-54
2023/03/27 03:35:14;;;;;;;10.13;2.43;;;;;;;;;;4972422;28;21186;-54
2023/03/27 03:37:41;;;;;;;5.47;1.97;;;;;;;;;;4972299;28;20203;-54
2023/03/27 03:40:10;;;;;;;6.80;2.23;;;;;;;;;;4972278;28;20203;-54
2023/03/27 03:42:36;;;;;;;4.77;2.40;;;;;;;;;;4974673;28;20457;-55
2023/03/27 03:45:02;;;;;;;5.00;2.10;;;;;;;;;;4976006;28;20438;-54
2023/03/27 03:47:28;;;;;;;3.50;1.97;;;;;;;;;;4975932;28;20456;-54
2023/03/27 03:49:55;;;;;;;4.80;2.10;;;;;;;;;;4975980;28;20442;-54
2023/03/27 03:52:21;;;;;;;5.17;2.03;;;;;;;;;;4975893;28;20440;-55
2023/03/27 03:54:46;;;;;;;4.97;1.90;;;;;;;;;;4975829;28;20456;-54
2023/03/27 03:57:14;;;;;;;5.63;2.17;;;;;;;;;;4975865;28;20227;-54
2023/03/27 03:59:40;;;;;;;6.87;2.60;;;;;;;;;;4975743;28;20720;-54
2023/03/27 04:02:06;;;;;;;2.87;1.93;;;;;;;;;;4975606;28;20469;-54
2023/03/27 04:04:32;;;;;;;3.77;2.73;;;;;;;;;;4975629;28;20493;-54
2023/03/27 04:06:58;;;;;;;3.77;1.90;;;;;;;;;;4975703;28;20446;-54
2023/03/27 04:09:24;;;;;;;6.67;2.00;;;;;;;;;;4975526;28;20254;-54
2023/03/27 04:11:50;;;;;;;6.67;2.47;;;;;;;;;;4975555;28;20856;-54
2023/03/27 04:14:18;;;;;;;6.60;2.30;;;;;;;;;;4975544;28;20598;-54
2023/03/27 04:16:44;;;;;;;2.73;1.73;;;;;;;;;;4975557;28;20480;-54
2023/03/27 04:19:10;;;;;;;4.80;1.90;;;;;;;;;;4975421;28;20509;-54
2023/03/27 04:21:36;;;;;;;3.00;1.90;;;;;;;;;;4975305;28;20206;-54
2023/03/27 04:24:02;;;;;;;4.63;2.23;;;;;;;;;;4975328;28;20250;-54
2023/03/27 04:26:28;;;;;;;4.43;1.97;;;;;;;;;;4975318;28;20446;-54
2023/03/27 04:28:54;;;;;;;5.97;1.90;;;;;;;;;;4975213;28;20199;-55
2023/03/27 04:31:21;;;;;;;4.40;2.10;;;;;;;;;;4975138;28;20805;-54
2023/03/27 04:33:50;;;;;;;4.23;2.03;;;;;;;;;;4974994;28;20261;-54
2023/03/27 04:36:16;;;;;;;6.03;2.13;;;;;;;;;;4975000;28;20514;-54
2023/03/27 04:38:43;;;;;;;4.60;1.80;;;;;;;;;;4975034;28;20438;-54
2023/03/27 04:41:09;;;;;;;4.70;1.93;;;;;;;;;;4975017;28;20446;-55
2023/03/27 04:43:38;;;;;;;5.80;2.07;;;;;;;;;;4974834;28;20520;-54
2023/03/27 04:46:07;;;;;;;6.80;1.77;;;;;;;;;;4974810;28;20273;-55
2023/03/27 04:48:37;;;;;;;4.90;1.77;;;;;;;;;;4974744;28;20434;-55
2023/03/27 04:51:03;;;;;;;4.73;2.10;;;;;;;;;;4974802;28;20553;-55
2023/03/27 04:53:31;;;;;;;3.67;1.60;;;;;;;;;;4974599;28;20947;-54
2023/03/27 04:55:57;;;;;;;4.87;1.90;;;;;;;;;;4974735;28;20490;-55
2023/03/27 04:58:24;;;;;;;3.93;1.90;;;;;;;;;;4974606;28;20533;-55
2023/03/27 05:00:54;;;;;;;3.27;2.00;;;;;;;;;;4974606;28;20499;-55
2023/03/27 05:03:19;;;;;;;3.43;2.00;;;;;;;;;;4974591;28;20434;-55
2023/03/27 05:05:48;;;;;;;5.07;1.80;;;;;;;;;;4974534;28;20504;-55
2023/03/27 05:08:14;;;;;;;2.80;1.60;;;;;;;;;;4974907;28;20282;-55
2023/03/27 05:10:40;;;;;;;6.27;1.90;;;;;;;;;;4974416;28;20453;-55
2023/03/27 05:13:07;;;;;;;3.83;2.23;;;;;;;;;;4974472;28;20474;-54
2023/03/27 05:15:33;;;;;;;3.73;2.00;;;;;;;;;;4974042;28;20505;-55
2023/03/27 05:17:59;;;;;;;2.60;1.70;;;;;;;;;;4974525;28;20430;-55
2023/03/27 05:20:26;;;;;;;4.10;2.23;;;;;;;;;;4974221;28;20553;-55
2023/03/27 05:22:54;;;;;;;5.10;2.40;;;;;;;;;;4974221;28;20458;-54
2023/03/27 05:25:20;;;;;;;4.23;2.30;;;;;;;;;;4973902;28;20493;-54
2023/03/27 05:27:46;;;;;;;3.40;2.00;;;;;;;;;;4974168;28;20954;-54
2023/03/27 05:30:14;;;;;;;2.87;1.77;;;;;;;;;;4973955;28;20945;-55
2023/03/27 05:32:43;;;;;;;3.80;1.70;;;;;;;;;;4973465;28;20489;-54
2023/03/27 05:35:10;;;;;;;5.60;2.20;;;;;;;;;;4973848;28;20497;-54
2023/03/27 05:37:36;;;;;;;2.33;1.53;;;;;;;;;;4973823;28;20525;-54
2023/03/27 05:40:04;;;;;;;2.93;1.90;;;;;;;;;;4973949;28;20439;-55
2023/03/27 05:42:30;;;;;;;4.30;2.07;;;;;;;;;;4973792;28;20289;-54
2023/03/27 05:44:56;;;;;;;2.57;1.60;;;;;;;;;;4973903;28;20518;-54
2023/03/27 05:47:22;;;;;;;3.40;1.93;;;;;;;;;;4973500;28;20562;-54
2023/03/27 05:49:48;;;;;;;3.30;1.97;;;;;;;;;;4973557;28;20195;-54
2023/03/27 05:52:14;;;;;;;4.33;2.00;;;;;;;;;;4973791;28;20991;-54
2023/03/27 05:54:40;;;;;;;2.87;1.67;;;;;;;;;;4973535;28;20257;-54
2023/03/27 05:57:08;;;;;;;6.57;2.10;;;;;;;;;;4973764;28;20477;-54
2023/03/27 05:59:34;;;;;;;2.00;1.63;;;;;;;;;;4973443;28;20211;-54
2023/03/27 06:02:00;;;;;;;3.97;1.80;;;;;;;;;;4973532;28;20457;-54
2023/03/27 06:04:27;;;;;;;5.90;1.80;;;;;;;;;;4972890;28;20447;-55
2023/03/27 06:06:53;;;;;;;4.63;2.07;;;;;;;;;;4973528;28;20199;-54
2023/03/27 06:09:20;;;;;;;4.47;1.90;;;;;;;;;;4973323;28;20438;-54
2023/03/27 06:11:46;;;;;;;4.00;1.70;;;;;;;;;;4973226;28;20802;-55
2023/03/27 06:14:13;;;;;;;4.93;1.77;;;;;;;;;;4973421;28;20433;-55
2023/03/27 06:16:39;;;;;;;5.60;2.30;;;;;;;;;;4972881;28;20587;-54
2023/03/27 06:19:06;;;;;;;5.93;2.20;;;;;;;;;;4973091;28;20438;-55
2023/03/27 06:21:32;;;;;;;4.17;2.00;;;;;;;;;;4973048;28;20290;-54
2023/03/27 06:23:58;;;;;;;2.90;2.07;;;;;;;;;;4973368;28;20458;-54
2023/03/27 06:26:24;;;;;;;4.17;2.03;;;;;;;;;;4973073;28;20195;-55
2023/03/27 06:28:50;;;;;;;5.13;2.50;;;;;;;;;;4972818;28;20338;-54
2023/03/27 06:31:18;;;;;;;4.63;2.30;;;;;;;;;;4972877;28;20233;-54
2023/03/27 06:33:45;;;;;;;6.37;2.13;;;;;;;;;;4972823;28;20477;-55
2023/03/27 06:36:11;;;;;;;5.77;2.10;;;;;;;;;;4973133;28;20481;-55
2023/03/27 06:38:37;;;;;;;6.03;2.10;;;;;;;;;;4972708;28;20798;-55
2023/03/27 06:41:03;;;;;;;3.67;1.90;;;;;;;;;;4972778;28;20449;-56
2023/03/27 06:43:29;;;;;;;4.60;2.00;;;;;;;;;;4972835;28;20297;-55
2023/03/27 06:45:55;;;;;;;9.50;2.40;;;;;;;;;;4972686;28;20522;-55
2023/03/27 06:48:23;;;;;;;3.87;1.93;;;;;;;;;;4972710;28;20199;-55
2023/03/27 06:50:50;;;;;;;5.47;2.20;;;;;;;;;;4972684;28;20266;-55
2023/03/27 06:53:16;;;;;;;3.63;2.30;;;;;;;;;;4972754;28;20485;-54
2023/03/27 06:55:43;;;;;;;3.43;1.80;;;;;;;;;;4972648;28;20498;-54
2023/03/27 06:58:12;;;;;;;4.83;2.10;;;;;;;;;;4972661;28;20446;-55
2023/03/27 07:00:39;;;;;;;8.37;2.40;;;;;;;;;;4972463;28;20442;-55
2023/03/27 07:03:07;;;;;;;4.83;2.20;;;;;;;;;;4972609;28;20438;-55
2023/03/27 07:05:35;;;;;;;4.53;2.30;;;;;;;;;;4972309;28;20948;-55
2023/03/27 07:08:01;;;;;;;5.60;1.90;;;;;;;;;;4972673;28;20461;-55
2023/03/27 07:10:27;;;;;;;7.27;2.13;;;;;;;;;;4972669;28;20474;-55
2023/03/27 07:12:53;;;;;;;6.80;2.20;;;;;;;;;;4972538;28;20445;-55
2023/03/27 07:15:20;;;;;;;3.13;1.97;;;;;;;;;;4972299;28;20531;-55
2023/03/27 07:17:51;;;;;;;6.90;2.40;;;;;;;;;;4975316;28;20481;-55
2023/03/27 07:20:18;;;;;;;6.07;2.17;;;;;;;;;;4976438;28;20485;-55
2023/03/27 07:22:45;;;;;;;4.57;2.10;;;;;;;;;;4976436;28;20434;-55
2023/03/27 07:25:11;;;;;;;5.30;2.67;;;;;;;;;;4976446;28;20454;-55
2023/03/27 07:27:37;;;;;;;6.17;2.03;;;;;;;;;;4976226;28;20994;-55
2023/03/27 07:30:06;;;;;;;3.77;2.07;;;;;;;;;;4976227;28;20449;-55
2023/03/27 07:32:33;;;;;;;4.37;2.10;;;;;;;;;;4975788;28;20492;-55
2023/03/27 07:34:59;;;;;;;4.97;2.00;;;;;;;;;;4976322;28;20442;-55
2023/03/27 07:37:26;;;;;;;8.07;2.53;;;;;;;;;;4976015;28;20481;-54
2023/03/27 07:39:53;;;;;;;6.33;2.20;;;;;;;;;;4975989;28;20525;-54
2023/03/27 07:42:19;;;;;;;4.23;2.30;;;;;;;;;;4975984;28;20461;-55
2023/03/27 07:44:45;;;;;;;6.17;2.30;;;;;;;;;;4975809;28;20438;-55
2023/03/27 07:47:11;;;;;;;6.70;2.47;;;;;;;;;;4976027;28;20493;-55
2023/03/27 07:49:37;;;;;;;6.07;2.10;;;;;;;;;;4975788;28;20469;-55
2023/03/27 07:52:04;;;;;;;3.60;2.10;;;;;;;;;;4975649;28;20195;-55
2023/03/27 07:54:30;;;;;;;6.13;2.27;;;;;;;;;;4975763;28;20944;-55
2023/03/27 07:56:58;;;;;;;3.63;2.00;;;;;;;;;;4975758;28;20590;-55
2023/03/27 07:59:24;;;;;;;5.00;2.07;;;;;;;;;;4975695;28;20238;-56
2023/03/27 08:01:50;;;;;;;5.47;2.30;;;;;;;;;;4975380;28;20450;-55
2023/03/27 08:04:16;;;;;;;3.57;1.70;;;;;;;;;;4975642;28;20609;-54
2023/03/27 08:06:42;;;;;;;5.60;2.00;;;;;;;;;;4975796;28;20246;-55
2023/03/27 08:09:09;;;;;;;7.03;2.30;;;;;;;;;;4975560;28;20212;-55
2023/03/27 08:11:37;;;;;;;4.00;2.27;;;;;;;;;;4975302;28;20191;-55
2023/03/27 08:14:04;;;;;;;5.53;1.80;;;;;;;;;;4975460;28;20281;-54
2023/03/27 08:16:31;;;;;;;5.93;2.10;;;;;;;;;;4975286;28;20323;-54
2023/03/27 08:18:57;;;;;;;5.70;1.90;;;;;;;;;;4975618;28;20195;-54
2023/03/27 08:21:23;;;;;;;4.37;2.00;;;;;;;;;;4975197;28;20562;-54
2023/03/27 08:23:49;;;;;;;5.50;2.20;;;;;;;;;;4975343;28;20230;-54
2023/03/27 08:26:15;;;;;;;3.53;2.30;;;;;;;;;;4975187;28;20564;-52
2023/03/27 08:28:41;;;;;;;4.30;2.00;;;;;;;;;;4974660;28;20669;-53
2023/03/27 08:31:10;;;;;;;2.87;1.90;;;;;;;;;;4975091;28;20234;-54
2023/03/27 08:33:36;;;;;;;1.90;1.60;;;;;;;;;;4973126;28;20775;-54
2023/03/27 08:36:03;;;;;;;3.53;1.77;;;;;;;;;;4955975;29;20263;-54
2023/03/27 08:38:32;;;;;;;3.13;1.87;;;;;;;;;;4954165;28;20210;-54
2023/03/27 08:40:59;;;;;;;6.77;1.90;;;;;;;;;;4955927;28;20215;-53
2023/03/27 08:43:26;;;;;;;1.60;1.30;;;;;;;;;;4955703;28;20199;-54
2023/03/27 08:45:55;;;;;;;2.87;1.57;;;;;;;;;;4955367;29;20219;-53
2023/03/27 08:48:26;;;;;;;5.27;1.90;;;;;;;;;;4955506;28;20497;-53
2023/03/27 08:50:53;;;;;;;3.40;1.63;;;;;;;;;;4955281;28;20214;-53
2023/03/27 08:53:22;;;;;;;2.97;1.40;;;;;;;;;;4955400;29;20290;-53
2023/03/27 08:55:48;;;;;;;5.57;1.63;;;;;;;;;;4955202;29;20267;-53
2023/03/27 08:58:17;;;;;;;4.43;1.87;;;;;;;;;;4955409;28;20208;-53
2023/03/27 09:00:44;;;;;;;3.80;1.73;;;;;;;;;;4955337;28;20290;-53
2023/03/27 09:03:13;;;;;;;3.40;1.43;;;;;;;;;;4955170;29;20203;-52
2023/03/27 09:05:42;;;;;;;4.10;2.17;;;;;;;;;;4955154;29;20199;-53
2023/03/27 09:08:14;;;;;;;2.97;1.50;;;;;;;;;;4955147;29;20204;-53
2023/03/27 09:10:42;;;;;;;4.30;1.90;;;;;;;;;;4955035;28;20279;-53
2023/03/27 09:13:11;;;;;;;4.57;1.60;;;;;;;;;;4955004;29;20684;-53
2023/03/27 09:15:41;;;;;;;2.83;1.60;;;;;;;;;;4954804;29;20215;-54
2023/03/27 09:18:10;;;;;;;2.90;1.27;;;;;;;;;;4954889;29;20195;-52
2023/03/27 09:20:39;;;;;;;3.80;1.50;;;;;;;;;;4954799;29;20204;-53
2023/03/27 09:23:11;;;;;;;3.20;1.43;;;;;;;;;;4954737;28;20207;-50
2023/03/27 09:25:38;;;;;;;3.93;1.63;;;;;;;;;;4954700;28;20838;-51
2023/03/27 09:28:10;;;;;;;3.73;1.60;;;;;;;;;;4955015;29;20203;-51
2023/03/27 09:30:37;;;;;;;3.50;1.50;;;;;;;;;;4954542;29;20204;-51
2023/03/27 09:33:04;;;;;;;2.97;1.63;;;;;;;;;;4954749;29;20247;-52
2023/03/27 09:35:31;;;;;;;4.00;1.60;;;;;;;;;;4954389;29;20204;-51
2023/03/27 09:37:59;;;;;;;4.00;1.50;;;;;;;;;;4952909;28;20286;-52
2023/03/27 09:40:32;;;;;;;4.87;1.50;;;;;;;;;;4953507;28;20255;-51
2023/03/27 09:43:00;;;;;;;4.33;1.53;;;;;;;;;;4954617;28;20230;-52
2023/03/27 09:45:27;;;;;;;2.67;1.27;;;;;;;;;;4954225;29;20204;-53
2023/03/27 09:48:00;;;;;;;2.83;1.10;;;;;;;;;;4954013;29;20270;-53
2023/03/27 09:50:28;;;;;;;3.60;1.50;;;;;;;;;;4954187;29;20259;-52
2023/03/27 09:53:09;;;;;;;2.67;1.20;;;;;;;;;;4954069;29;20200;-53
2023/03/27 09:55:44;;;;;;;2.57;1.50;;;;;;;;;;4953868;28;20199;-53
2023/03/27 09:58:14;;;;;;;2.57;1.33;;;;;;;;;;4953863;29;20207;-53
2023/03/27 10:00:40;;;;;;;2.47;1.27;;;;;;;;;;4953703;28;20219;-54
2023/03/27 10:03:15;;;;;;;2.70;1.60;;;;;;;;;;4953551;29;20246;-53
2023/03/27 10:05:42;;;;;;;2.13;1.40;;;;;;;;;;4953982;29;20206;-53
2023/03/27 10:08:27;;;;;;;3.67;1.40;;;;;;;;;;4953849;28;20278;-53
2023/03/27 10:10:56;;;;;;;3.37;1.50;;;;;;;;;;4953751;28;20200;-52
2023/03/27 10:13:24;;;;;;;2.00;1.03;;;;;;;;;;4953636;29;20216;-53
2023/03/27 10:15:57;;;;;;;1.00;1.00;;;;;;;;;;4953153;28;20259;-53
2023/03/27 10:18:26;;;;;;;2.50;1.00;;;;;;;;;;4953210;29;20777;-52
2023/03/27 10:20:52;;;;;;;2.73;1.27;;;;;;;;;;4953057;28;20200;-52
2023/03/27 10:23:22;;;;;;;2.40;1.37;;;;;;;;;;4953154;29;20246;-52
2023/03/27 10:25:49;;;;;;;1.80;1.20;;;;;;;;;;4953127;29;20196;-51
2023/03/27 10:28:17;;;;;;;2.73;1.23;;;;;;;;;;4953209;29;20203;-52
2023/03/27 10:30:43;;;;;;;1.93;0.97;;;;;;;;;;4952992;29;20286;-51
2023/03/27 10:33:09;;;;;;;1.27;1.00;;;;;;;;;;4952953;29;20238;-52
2023/03/27 10:35:37;;;;;;;2.10;1.10;;;;;;;;;;4952880;29;20295;-51
2023/03/27 10:38:04;;;;;;;2.53;1.20;;;;;;;;;;4953032;29;20282;-52
2023/03/27 10:40:32;;;;;;;3.10;1.33;;;;;;;;;;4953102;29;20211;-52
2023/03/27 10:43:01;;;;;;;3.27;1.23;;;;;;;;;;4953153;29;20207;-52
2023/03/27 10:45:30;;;;;;;2.07;1.10;;;;;;;;;;4952899;29;20222;-52
2023/03/27 10:47:58;;;;;;;2.00;1.10;;;;;;;;;;4952941;29;20287;-52
2023/03/27 10:50:27;;;;;;;2.77;1.40;;;;;;;;;;4952512;28;20207;-52
2023/03/27 10:52:57;;;;;;;1.70;1.10;;;;;;;;;;4952863;29;20207;-51
2023/03/27 10:55:32;;;;;;;3.87;1.70;;;;;;;;;;4952604;29;20225;-52
2023/03/27 10:58:01;;;;;;;1.50;1.10;;;;;;;;;;4952761;29;20207;-53
2023/03/27 11:00:33;;;;;;;1.37;1.00;;;;;;;;;;4952744;29;20352;-50
2023/03/27 11:03:02;;;;;;;3.40;1.30;;;;;;;;;;4952933;28;20203;-52
2023/03/27 11:05:29;;;;;;;1.63;1.10;;;;;;;;;;4952802;28;20211;-49
2023/03/27 11:07:59;;;;;;;1.33;1.17;;;;;;;;;;4952429;28;20262;-49
2023/03/27 11:10:28;;;;;;;1.00;1.00;;;;;;;;;;4952315;28;20475;-49
2023/03/27 11:12:55;;;;;;;2.30;1.00;;;;;;;;;;4952560;29;20455;-51
2023/03/27 11:15:23;;;;;;;3.73;1.13;;;;;;;;;;4952470;29;20311;-50
2023/03/27 11:17:54;;;;;;;1.97;1.10;;;;;;;;;;4952297;29;20239;-52
2023/03/27 11:20:21;;;;;;;1.10;0.90;;;;;;;;;;4952711;28;20271;-52
2023/03/27 11:22:50;;;;;;;1.50;0.90;;;;;;;;;;4952482;29;20207;-52
2023/03/27 11:25:18;;;;;;;1.20;1.00;;;;;;;;;;4952895;28;20213;-52
2023/03/27 11:27:47;;;;;;;0.80;0.80;;;;;;;;;;4953100;28;20212;-55
2023/03/27 11:30:22;;;;;;;1.03;0.80;;;;;;;;;;4953306;28;20199;-52
2023/03/27 11:32:51;;;;;;;3.17;1.00;;;;;;;;;;4952640;29;20535;-53
2023/03/27 11:35:22;;;;;;;2.90;1.07;;;;;;;;;;4952946;28;20586;-54
2023/03/27 11:37:50;;;;;;;1.77;1.40;;;;;;;;;;4952765;29;20227;-55
2023/03/27 11:40:19;;;;;;;3.43;1.87;;;;;;;;;;4952787;28;20199;-53
2023/03/27 11:42:46;;;;;;;1.57;1.20;;;;;;;;;;4952795;28;20203;-53
2023/03/27 11:45:12;;;;;;;2.80;1.10;;;;;;;;;;4952668;29;20204;-53
2023/03/27 11:47:48;;;;;;;2.43;1.40;;;;;;;;;;4952493;29;20200;-53
2023/03/27 11:50:30;;;;;;;2.90;1.00;;;;;;;;;;4952524;29;20291;-53
2023/03/27 11:53:03;;;;;;;3.30;1.43;;;;;;;;;;4952471;29;20713;-53
2023/03/27 11:55:33;;;;;;;1.87;1.20;;;;;;;;;;4952403;29;20307;-53
2023/03/27 11:58:04;;;;;;;2.40;1.00;;;;;;;;;;4952359;29;20236;-52
2023/03/27 12:00:32;;;;;;;3.37;1.17;;;;;;;;;;4952112;29;20591;-52
2023/03/27 12:03:13;;;;;;;0.87;0.80;;;;;;;;;;4953615;28;20207;-52
2023/03/27 12:05:47;;;;;;;1.43;1.10;;;;;;;;;;4955332;29;20662;-52
2023/03/27 12:08:17;;;;;;;1.13;0.90;;;;;;;;;;4955728;28;20693;-51
2023/03/27 12:10:46;;;;;;;1.00;0.90;;;;;;;;;;4955780;29;20215;-51
2023/03/27 12:13:31;;;;;;;0.80;0.80;;;;;;;;;;4956078;29;20233;-51
2023/03/27 12:16:08;;;;;;;1.07;1.00;;;;;;;;;;4955801;29;20195;-51
2023/03/27 12:18:39;;;;;;;1.20;0.93;;;;;;;;;;4955576;29;20267;-52
2023/03/27 12:21:12;;;;;;;1.43;1.07;;;;;;;;;;4955695;29;20693;-52
2023/03/27 12:23:47;;;;;;;1.40;0.90;;;;;;;;;;4955776;29;20199;-52
2023/03/27 12:26:25;;;;;;;1.40;0.70;;;;;;;;;;4955789;29;20677;-52
2023/03/27 12:28:57;;;;;;;1.23;1.03;;;;;;;;;;4955493;29;20207;-52
2023/03/27 12:31:30;;;;;;;2.00;1.10;;;;;;;;;;4955583;28;20638;-52
2023/03/27 12:34:00;;;;;;;2.00;1.10;;;;;;;;;;4955442;29;20239;-52
2023/03/27 12:36:29;;;;;;;1.00;0.60;;;;;;;;;;4955622;29;20219;-51
2023/03/27 12:38:56;;;;;;;0.80;0.70;;;;;;;;;;4955452;29;20232;-52
2023/03/27 12:41:23;;;;;;;2.37;1.07;;;;;;;;;;4955558;29;20203;-49
2023/03/27 12:43:53;;;;;;;0.80;0.80;;;;;;;;;;4955176;29;20254;-51
2023/03/27 12:46:30;;;;;;;1.20;0.93;;;;;;;;;;4955234;28;20721;-49
2023/03/27 12:48:58;;;;;;;2.00;0.90;;;;;;;;;;4955532;28;20195;-51
2023/03/27 12:51:37;;;;;;;0.90;0.90;;;;;;;;;;4955250;28;20222;-52
2023/03/27 12:54:13;;;;;;;2.07;0.93;;;;;;;;;;4953304;28;20203;-52
2023/03/27 12:56:39;;;;;;;1.73;0.77;;;;;;;;;;4954928;29;20223;-52
2023/03/27 12:59:13;;;;;;;1.60;0.93;;;;;;;;;;4954741;28;20720;-53
2023/03/27 13:01:51;;;;;;;1.63;0.93;;;;;;;;;;4954997;29;20203;-53
2023/03/27 13:04:28;;;;;;;1.47;0.90;;;;;;;;;;4954827;29;20546;-53
2023/03/27 13:06:59;;;;;;;2.17;1.20;;;;;;;;;;4954868;29;20205;-53
2023/03/27 13:09:35;;;;;;;1.73;0.90;;;;;;;;;;4954777;28;20204;-53
2023/03/27 13:12:12;;;;;;;1.70;1.17;;;;;;;;;;4954782;28;20596;-52
2023/03/27 13:14:56;;;;;;;3.00;1.10;;;;;;;;;;4954550;28;20330;-53
2023/03/27 13:17:32;;;;;;;1.30;0.90;;;;;;;;;;4954383;29;20219;-52
2023/03/27 13:20:06;;;;;;;2.60;1.20;;;;;;;;;;4954780;28;20203;-52
2023/03/27 13:22:47;;;;;;;1.13;0.87;;;;;;;;;;4954382;28;20206;-50
2023/03/27 13:25:21;;;;;;;3.40;1.33;;;;;;;;;;4952144;28;20300;-51
2023/03/27 13:27:52;;;;;;;1.40;0.90;;;;;;;;;;4954261;28;20697;-50
2023/03/27 13:30:37;;;;;;;2.93;1.27;;;;;;;;;;4954485;29;20203;-50
2023/03/27 13:33:13;;;;;;;1.70;1.03;;;;;;;;;;4954040;29;20347;-50
2023/03/27 13:35:42;;;;;;;2.00;1.10;;;;;;;;;;4953908;29;20687;-50
2023/03/27 13:38:10;;;;;;;1.83;1.10;;;;;;;;;;4953896;29;20669;-50
2023/03/27 13:40:39;;;;;;;1.43;1.20;;;;;;;;;;4953868;29;20195;-50
2023/03/27 13:43:20;;;;;;;1.50;1.10;;;;;;;;;;4953999;28;20312;-50
2023/03/27 13:45:47;;;;;;;0.90;0.90;;;;;;;;;;4951588;28;20212;-50
2023/03/27 13:48:28;;;;;;;2.87;1.70;;;;;;;;;;4954258;29;20283;-51
2023/03/27 13:51:04;;;;;;;1.70;1.13;;;;;;;;;;4954117;29;20214;-52
2023/03/27 13:53:36;;;;;;;2.40;1.10;;;;;;;;;;4954020;29;20207;-52
2023/03/27 13:56:13;;;;;;;1.53;1.00;;;;;;;;;;4953694;29;20657;-50
2023/03/27 13:58:54;;;;;;;1.93;1.27;;;;;;;;;;4953591;29;20282;-51
2023/03/27 14:01:27;;;;;;;0.83;0.80;;;;;;;;;;4922152;28;20587;-53
2023/03/27 14:03:59;;;;;;;2.87;1.40;;;;;;;;;;4953676;28;20204;-53
2023/03/27 14:06:44;;;;;;;1.63;1.07;;;;;;;;;;4953785;29;20564;-52
2023/03/27 14:09:14;;;;;;;1.17;0.80;;;;;;;;;;4953805;29;20196;-53
2023/03/27 14:11:50;;;;;;;2.73;1.37;;;;;;;;;;4953820;28;20223;-51
2023/03/27 14:14:22;;;;;;;3.10;1.00;;;;;;;;;;4953888;28;20210;-51
2023/03/27 14:17:11;;;;;;;1.80;0.90;;;;;;;;;;4953470;29;20235;-53
2023/03/27 14:19:52;;;;;;;1.43;1.10;;;;;;;;;;4953601;29;20204;-51
2023/03/27 14:22:22;;;;;;;2.97;1.00;;;;;;;;;;4953712;29;20207;-52
2023/03/27 14:24:53;;;;;;;1.47;1.07;;;;;;;;;;4951141;28;20296;-53
2023/03/27 14:27:21;;;;;;;1.50;1.10;;;;;;;;;;4952830;29;20202;-51
2023/03/27 14:30:03;;;;;;;1.53;1.07;;;;;;;;;;4952908;28;20675;-52
2023/03/27 14:32:29;;;;;;;2.10;1.23;;;;;;;;;;4953069;28;20229;-51
2023/03/27 14:35:01;;;;;;;2.30;1.10;;;;;;;;;;4952716;29;20243;-53
2023/03/27 14:37:29;;;;;;;5.00;1.27;;;;;;;;;;4953124;28;20235;-54
2023/03/27 14:39:56;;;;;;;1.40;1.00;;;;;;;;;;4952924;29;20254;-52
2023/03/27 14:42:25;;;;;;;1.20;0.90;;;;;;;;;;4952855;29;20895;-52
2023/03/27 14:44:52;;;;;;;1.70;1.20;;;;;;;;;;4952631;29;20254;-53
2023/03/27 14:47:21;;;;;;;2.03;1.10;;;;;;;;;;4952799;28;20200;-52
2023/03/27 14:49:49;;;;;;;1.77;1.20;;;;;;;;;;4952716;28;20620;-52
2023/03/27 14:52:20;;;;;;;3.60;1.17;;;;;;;;;;4952815;29;20287;-52
2023/03/27 14:54:47;;;;;;;3.97;1.30;;;;;;;;;;4952824;28;20195;-52